createdAt,value
2023-01-19T00:00:10.887Z,36.83
2023-01-19T00:05:17.981Z,37.45
2023-01-19T00:08:02.338Z,36.47
2023-01-19T00:10:36.166Z,34.63
2023-01-19T00:13:29.583Z,34.78
2023-01-19T00:16:18.531Z,36.22
2023-01-19T00:21:42.991Z,35.20
2023-01-19T00:24:12.491Z,33.53
2023-01-19T00:26:53.625Z,34.67
2023-01-19T00:29:35.328Z,35.88
2023-01-19T00:32:06.254Z,37.53
2023-01-19T00:34:43.605Z,34.50
2023-01-19T00:37:17.421Z,36.55
2023-01-19T00:42:34.242Z,37.13
2023-01-19T00:45:19.709Z,33.58
2023-01-19T00:47:48.402Z,37.80
2023-01-19T00:50:21.427Z,38.13
2023-01-19T00:52:52.894Z,33.28
2023-01-19T00:55:25.919Z,33.15
2023-01-19T01:00:36.125Z,37.28
2023-01-19T01:03:10.587Z,39.58
2023-01-19T01:05:50.370Z,38.03
2023-01-19T01:08:17.247Z,38.22
2023-01-19T01:10:46.569Z,38.45
2023-01-19T01:13:20.460Z,36.30
2023-01-19T01:15:52.465Z,37.35
2023-01-19T01:18:19.430Z,39.03
2023-01-19T01:21:00.588Z,35.10
2023-01-19T01:23:30.331Z,40.45
2023-01-19T01:26:00.145Z,38.03
2023-01-19T01:28:57.550Z,40.60
2023-01-19T01:31:50.910Z,39.65
2023-01-19T01:34:23.343Z,39.78
2023-01-19T01:36:55.070Z,40.05
2023-01-19T01:39:22.667Z,41.35
2023-01-19T01:42:15.875Z,40.47
2023-01-19T01:45:41.869Z,40.60
2023-01-19T01:48:32.599Z,40.75
2023-01-19T01:51:15.792Z,40.72
2023-01-19T01:53:45.490Z,42.17
2023-01-19T01:56:20.337Z,43.45
2023-01-19T01:59:04.829Z,44.30
2023-01-19T02:01:42.856Z,43.65
2023-01-19T02:04:22.704Z,44.83
2023-01-19T02:06:49.373Z,44.90
2023-01-19T02:09:32.827Z,45.33
2023-01-19T02:12:04.566Z,47.55
2023-01-19T02:14:31.258Z,45.10
2023-01-19T02:16:58.064Z,47.40
2023-01-19T02:19:35.381Z,44.47
2023-01-19T02:22:19.237Z,46.80
2023-01-19T02:24:46.253Z,47.00
2023-01-19T02:27:13.294Z,47.47
2023-01-19T02:29:49.230Z,48.30
2023-01-19T02:32:18.752Z,46.35
2023-01-19T02:34:48.600Z,40.35
2023-01-19T02:37:18.571Z,47.03
2023-01-19T02:40:04.628Z,47.50
2023-01-19T02:43:14.890Z,47.72
2023-01-19T02:46:09.594Z,46.95
2023-01-19T02:48:47.709Z,46.42
2023-01-19T02:51:31.312Z,46.58
2023-01-19T02:54:23.627Z,48.50
2023-01-19T02:57:27.430Z,46.17
2023-01-19T03:00:26.759Z,48.45
2023-01-19T03:03:15.941Z,47.20
2023-01-19T03:06:46.817Z,45.03
2023-01-19T03:09:28.920Z,44.95
2023-01-19T03:12:23.835Z,45.55
2023-01-19T03:14:53.887Z,45.35
2023-01-19T03:17:21.782Z,46.50
2023-01-19T03:22:42.336Z,42.03
2023-01-19T03:25:27.782Z,44.57
2023-01-19T03:27:57.492Z,45.63
2023-01-19T03:30:35.198Z,45.90
2023-01-19T03:33:15.653Z,45.33
2023-01-19T03:35:50.499Z,43.65
2023-01-19T03:38:21.937Z,43.97
2023-01-19T03:40:49.544Z,43.53
2023-01-19T03:43:30.855Z,44.58
2023-01-19T03:45:57.944Z,45.13
2023-01-19T03:51:14.166Z,44.22
2023-01-19T03:53:54.796Z,44.03
2023-01-19T03:59:27.021Z,44.55
2023-01-19T04:02:14.310Z,43.60
2023-01-19T04:04:56.485Z,43.90
2023-01-19T04:10:08.333Z,42.38
2023-01-19T04:12:57.661Z,45.28
2023-01-19T04:15:31.252Z,42.88
2023-01-19T04:17:59.201Z,43.58
2023-01-19T04:20:28.841Z,42.33
2023-01-19T04:25:44.489Z,44.50
2023-01-19T04:30:56.226Z,44.40
2023-01-19T04:33:27.256Z,43.20
2023-01-19T04:36:02.892Z,42.88
2023-01-19T04:38:29.749Z,42.78
2023-01-19T04:41:08.807Z,43.63
2023-01-19T04:43:49.660Z,41.33
2023-01-19T04:49:20.270Z,41.83
2023-01-19T04:52:14.881Z,39.33
2023-01-19T04:54:44.136Z,40.17
2023-01-19T04:57:18.522Z,40.88
2023-01-19T04:59:51.686Z,39.83
2023-01-19T05:02:18.484Z,41.25
2023-01-19T05:04:45.064Z,40.67
2023-01-19T05:07:34.668Z,40.10
2023-01-19T05:10:07.692Z,41.53
2023-01-19T05:13:13.339Z,42.28
2023-01-19T05:15:38.771Z,40.90
2023-01-19T05:18:05.404Z,44.85
2023-01-19T05:20:31.971Z,44.05
2023-01-19T05:22:59.025Z,44.83
2023-01-19T05:25:25.863Z,42.85
2023-01-19T05:27:52.399Z,44.47
2023-01-19T05:30:19.040Z,38.70
2023-01-19T05:32:48.365Z,39.38
2023-01-19T05:35:31.306Z,43.33
2023-01-19T05:38:02.034Z,41.60
2023-01-19T05:40:38.551Z,40.95
2023-01-19T05:43:05.516Z,43.88
2023-01-19T05:45:41.409Z,43.38
2023-01-19T05:48:11.078Z,41.80
2023-01-19T05:50:40.347Z,42.28
2023-01-19T05:53:06.960Z,41.92
2023-01-19T05:55:36.448Z,45.35
2023-01-19T05:58:03.966Z,44.35
2023-01-19T06:00:30.542Z,45.92
2023-01-19T06:03:03.663Z,43.17
2023-01-19T06:05:44.961Z,40.30
2023-01-19T06:08:11.495Z,41.97
2023-01-19T06:10:38.141Z,42.20
2023-01-19T06:13:04.752Z,43.47
2023-01-19T06:15:35.422Z,43.45
2023-01-19T06:18:02.014Z,43.00
2023-01-19T06:20:48.088Z,45.10
2023-01-19T06:23:18.025Z,43.28
2023-01-19T06:25:46.669Z,42.97
2023-01-19T06:28:26.403Z,41.83
2023-01-19T06:31:04.510Z,42.63
2023-01-19T06:33:36.813Z,42.88
2023-01-19T06:36:04.053Z,43.17
2023-01-19T06:38:30.657Z,41.72
2023-01-19T06:40:58.900Z,43.72
2023-01-19T06:43:26.908Z,40.88
2023-01-19T06:46:03.632Z,43.78
2023-01-19T06:48:37.129Z,39.55
2023-01-19T06:51:03.696Z,41.03
2023-01-19T06:53:37.967Z,44.50
2023-01-19T06:56:04.987Z,44.45
2023-01-19T07:01:21.032Z,42.65
2023-01-19T07:03:52.007Z,41.97
2023-01-19T07:06:20.875Z,42.40
2023-01-19T07:09:08.602Z,41.67
2023-01-19T07:11:35.041Z,43.05
2023-01-19T07:14:02.783Z,43.67
2023-01-19T07:16:35.051Z,42.63
2023-01-19T07:19:05.803Z,42.35
2023-01-19T07:21:38.591Z,42.55
2023-01-19T07:24:10.043Z,42.40
2023-01-19T07:27:00.701Z,43.83
2023-01-19T07:29:50.976Z,43.35
2023-01-19T07:32:32.931Z,43.08
2023-01-19T07:34:59.480Z,44.38
2023-01-19T07:37:34.605Z,42.33
2023-01-19T07:40:07.688Z,39.22
2023-01-19T07:42:54.782Z,43.03
2023-01-19T07:45:23.808Z,40.53
2023-01-19T07:47:50.425Z,42.17
2023-01-19T07:50:17.975Z,40.25
2023-01-19T07:52:44.504Z,42.22
2023-01-19T07:55:11.099Z,41.90
2023-01-19T07:57:52.589Z,40.92
2023-01-19T08:00:20.742Z,37.83
2023-01-19T08:02:57.199Z,40.22
2023-01-19T08:05:34.293Z,41.38
2023-01-19T08:08:02.282Z,43.97
2023-01-19T08:10:34.871Z,43.40
2023-01-19T08:13:11.503Z,42.28
2023-01-19T08:15:58.781Z,45.88
2023-01-19T08:18:36.458Z,47.20
2023-01-19T08:21:08.151Z,36.92
2023-01-19T08:23:34.936Z,44.83
2023-01-19T08:26:17.853Z,46.72
2023-01-19T08:28:52.055Z,45.45
2023-01-19T08:31:28.290Z,47.45
2023-01-19T08:33:57.814Z,43.00
2023-01-19T08:36:24.724Z,38.67
2023-01-19T08:38:59.544Z,43.88
2023-01-19T08:41:28.492Z,43.03
2023-01-19T08:43:57.958Z,42.00
2023-01-19T08:46:24.580Z,41.90
2023-01-19T08:48:51.290Z,38.90
2023-01-19T08:51:25.963Z,40.38
2023-01-19T08:54:01.056Z,43.90
2023-01-19T08:59:20.975Z,44.15
2023-01-19T09:02:03.153Z,45.90
2023-01-19T09:04:30.459Z,43.00
2023-01-19T09:06:57.277Z,41.72
2023-01-19T09:09:36.016Z,44.20
2023-01-19T09:12:02.734Z,41.10
2023-01-19T09:14:41.500Z,43.30
2023-01-19T09:17:13.931Z,42.95
2023-01-19T09:19:41.299Z,42.78
2023-01-19T09:22:12.906Z,44.05
2023-01-19T09:24:42.019Z,41.17
2023-01-19T09:27:11.409Z,41.00
2023-01-19T09:29:37.980Z,40.72
2023-01-19T09:32:04.843Z,41.75
2023-01-19T09:34:32.869Z,39.42
2023-01-19T09:37:13.554Z,38.85
2023-01-19T09:39:40.331Z,36.30
2023-01-19T09:42:42.743Z,37.33
2023-01-19T09:45:48.805Z,37.38
2023-01-19T09:48:44.440Z,37.03
2023-01-19T09:51:26.343Z,36.58
2023-01-19T09:54:25.670Z,36.25
2023-01-19T09:57:09.604Z,38.67
2023-01-19T09:59:39.663Z,35.42
2023-01-19T10:02:24.700Z,34.58
2023-01-19T10:05:09.093Z,35.65
2023-01-19T10:08:27.799Z,39.67
2023-01-19T10:10:58.430Z,36.75
2023-01-19T10:14:11.276Z,36.47
2023-01-19T10:16:51.363Z,32.67
2023-01-19T10:19:39.219Z,33.28
2023-01-19T10:22:29.948Z,29.75
2023-01-19T10:25:01.396Z,31.70
2023-01-19T10:27:40.205Z,33.83
2023-01-19T10:30:08.825Z,32.55
2023-01-19T10:32:41.802Z,31.33
2023-01-19T10:35:31.755Z,32.80
2023-01-19T10:38:05.848Z,30.90
2023-01-19T10:40:39.300Z,32.25
2023-01-19T10:43:33.797Z,30.20
2023-01-19T10:46:21.907Z,30.02
2023-01-19T10:48:53.666Z,30.38
2023-01-19T10:51:23.176Z,28.60
2023-01-19T10:54:02.060Z,30.30
2023-01-19T10:56:39.447Z,28.40
2023-01-19T10:59:38.709Z,27.80
2023-01-19T11:02:26.599Z,29.50
2023-01-19T11:05:05.319Z,30.83
2023-01-19T11:07:35.171Z,30.95
2023-01-19T11:10:32.380Z,28.55
2023-01-19T11:13:10.485Z,30.67
2023-01-19T11:15:56.385Z,28.83
2023-01-19T11:18:34.424Z,28.23
2023-01-19T11:21:08.061Z,27.63
2023-01-19T11:23:42.153Z,29.60
2023-01-19T11:26:14.852Z,28.52
2023-01-19T11:29:06.172Z,28.73
2023-01-19T11:31:35.612Z,28.92
2023-01-19T11:34:05.657Z,29.00
2023-01-19T11:36:38.398Z,28.58
2023-01-19T11:39:24.651Z,28.95
2023-01-19T11:42:01.617Z,28.38
2023-01-19T11:44:35.285Z,28.17
2023-01-19T11:47:29.902Z,28.75
2023-01-19T11:50:33.461Z,29.27
2023-01-19T11:53:34.151Z,27.30
2023-01-19T11:56:11.093Z,26.40
2023-01-19T11:58:43.168Z,30.45
2023-01-19T12:04:07.436Z,29.23
2023-01-19T12:06:40.307Z,34.38
2023-01-19T12:09:09.954Z,30.42
2023-01-19T12:12:07.715Z,29.92
2023-01-19T12:18:03.073Z,28.08
2023-01-19T12:21:03.928Z,28.40
2023-01-19T12:24:13.655Z,28.20
2023-01-19T12:27:09.019Z,25.80
2023-01-19T12:29:36.909Z,27.15
2023-01-19T12:32:38.095Z,25.52
2023-01-19T12:35:29.264Z,25.15
2023-01-19T12:37:59.552Z,25.63
2023-01-19T12:40:33.119Z,25.95
2023-01-19T12:43:05.682Z,26.23
2023-01-19T12:45:40.292Z,26.35
2023-01-19T12:48:32.336Z,26.15
2023-01-19T12:50:59.882Z,25.60
2023-01-19T12:53:33.550Z,26.70
2023-01-19T12:56:04.843Z,25.67
2023-01-19T12:58:34.109Z,28.13
2023-01-19T13:01:18.770Z,27.23
2023-01-19T13:04:12.904Z,27.80
2023-01-19T13:06:48.690Z,23.67
2023-01-19T13:09:45.093Z,24.20
2023-01-19T13:12:25.825Z,25.95
2023-01-19T13:15:35.100Z,25.05
2023-01-19T13:18:02.694Z,24.27
2023-01-19T13:20:44.214Z,25.38
2023-01-19T13:23:25.554Z,26.35
2023-01-19T13:26:04.389Z,25.30
2023-01-19T13:28:57.473Z,22.55
2023-01-19T13:31:28.096Z,23.80
2023-01-19T13:34:01.609Z,25.65
2023-01-19T13:36:35.578Z,25.05
2023-01-19T13:39:38.356Z,26.00
2023-01-19T13:42:13.441Z,23.60
2023-01-19T13:44:48.168Z,23.85
2023-01-19T13:47:22.619Z,23.75
2023-01-19T13:50:08.811Z,23.33
2023-01-19T13:52:43.656Z,24.88
2023-01-19T13:55:33.493Z,22.70
2023-01-19T13:58:00.110Z,25.95
2023-01-19T14:00:29.527Z,24.50
2023-01-19T14:03:00.381Z,23.83
2023-01-19T14:05:31.459Z,25.88
2023-01-19T14:08:09.888Z,23.73
2023-01-19T14:11:06.179Z,25.73
2023-01-19T14:13:46.072Z,24.02
2023-01-19T14:16:33.986Z,25.50
2023-01-19T14:19:10.142Z,23.23
2023-01-19T14:21:38.910Z,22.70
2023-01-19T14:24:30.429Z,22.35
2023-01-19T14:27:27.987Z,23.73
2023-01-19T14:29:54.591Z,24.15
2023-01-19T14:32:26.177Z,24.98
2023-01-19T14:35:33.123Z,22.83
2023-01-19T14:38:02.391Z,21.65
2023-01-19T14:43:19.326Z,21.25
2023-01-19T14:46:01.376Z,23.25
2023-01-19T14:48:28.020Z,26.45
2023-01-19T14:51:13.271Z,24.70
2023-01-19T14:53:48.492Z,22.25
2023-01-19T14:56:28.026Z,23.02
2023-01-19T14:58:59.495Z,23.95
2023-01-19T15:01:30.125Z,26.90
2023-01-19T15:03:57.196Z,25.70
2023-01-19T15:06:26.469Z,27.08
2023-01-19T15:09:00.718Z,28.95
2023-01-19T15:11:32.810Z,27.20
2023-01-19T15:16:34.301Z,28.05
2023-01-19T15:19:17.802Z,26.92
2023-01-19T15:21:59.844Z,28.27
2023-01-19T15:24:29.459Z,26.42
2023-01-19T15:26:58.753Z,24.45
2023-01-19T15:29:26.260Z,22.85
2023-01-19T15:32:03.021Z,26.48
2023-01-19T15:34:49.801Z,25.92
2023-01-19T15:37:17.572Z,25.92
2023-01-19T15:39:50.356Z,26.38
2023-01-19T15:42:19.633Z,24.85
2023-01-19T15:44:48.744Z,24.67
2023-01-19T15:47:15.386Z,26.23
2023-01-19T15:49:41.968Z,24.35
2023-01-19T15:52:08.587Z,24.05
2023-01-19T15:54:44.114Z,23.17
2023-01-19T15:57:17.192Z,20.88
2023-01-19T15:59:44.579Z,21.92
2023-01-19T16:02:14.301Z,22.13
2023-01-19T16:04:48.045Z,22.98
2023-01-19T16:07:14.795Z,20.35
2023-01-19T16:09:42.244Z,20.05
2023-01-19T16:12:08.820Z,19.95
2023-01-19T16:14:42.808Z,20.40
2023-01-19T16:17:09.365Z,20.23
2023-01-19T16:19:35.948Z,18.88
2023-01-19T16:22:02.571Z,18.67
2023-01-19T16:24:34.767Z,18.92
2023-01-19T16:27:01.359Z,17.52
2023-01-19T16:29:34.292Z,19.52
2023-01-19T16:32:00.927Z,17.95
2023-01-19T16:34:30.743Z,18.00
2023-01-19T16:40:01.255Z,16.63
2023-01-19T16:42:28.199Z,16.73
2023-01-19T16:45:15.740Z,17.23
2023-01-19T16:47:42.310Z,17.60
2023-01-19T16:50:11.583Z,16.88
2023-01-19T16:52:41.114Z,16.30
2023-01-19T16:55:17.921Z,15.85
2023-01-19T16:57:50.266Z,17.00
2023-01-19T17:00:19.065Z,17.60
2023-01-19T17:02:48.935Z,16.63
2023-01-19T17:05:15.562Z,14.65
2023-01-19T17:07:42.213Z,16.25
2023-01-19T17:10:22.083Z,14.13
2023-01-19T17:12:49.041Z,14.40
2023-01-19T17:15:36.410Z,14.75
2023-01-19T17:18:11.046Z,13.15
2023-01-19T17:20:46.345Z,12.95
2023-01-19T17:23:20.307Z,12.52
2023-01-19T17:26:02.230Z,9.48
2023-01-19T17:28:32.124Z,10.70
2023-01-19T17:31:07.414Z,10.60
2023-01-19T17:33:35.092Z,9.88
2023-01-19T17:36:10.379Z,8.73
2023-01-19T17:38:42.616Z,10.32
2023-01-19T17:41:23.514Z,9.20
2023-01-19T17:44:00.102Z,9.35
2023-01-19T17:46:28.849Z,8.73
2023-01-19T17:49:02.903Z,9.57
2023-01-19T17:51:32.585Z,9.57
2023-01-19T17:54:04.257Z,8.93
2023-01-19T17:56:32.851Z,9.38
2023-01-19T17:59:00.001Z,9.55
2023-01-19T18:01:31.476Z,9.23
2023-01-19T18:03:58.745Z,9.23
2023-01-19T18:06:28.558Z,9.65
2023-01-19T18:08:58.334Z,8.25
2023-01-19T18:11:34.647Z,9.13
2023-01-19T18:14:03.966Z,8.35
2023-01-19T18:16:53.565Z,9.80
2023-01-19T18:19:30.379Z,8.77
2023-01-19T18:22:02.705Z,9.30
2023-01-19T18:24:29.275Z,8.73
2023-01-19T18:26:56.029Z,7.93
2023-01-19T18:29:22.927Z,8.27
2023-01-19T18:31:49.541Z,8.10
2023-01-19T18:34:16.101Z,7.70
2023-01-19T18:36:42.664Z,8.50
2023-01-19T18:39:09.283Z,9.18
2023-01-19T18:41:42.093Z,9.05
2023-01-19T18:44:12.753Z,9.60
2023-01-19T18:46:42.151Z,10.00
2023-01-19T18:49:09.039Z,9.02
2023-01-19T18:51:36.001Z,9.80
2023-01-19T18:54:02.634Z,9.32
2023-01-19T18:56:29.759Z,9.50
2023-01-19T18:58:57.574Z,10.40
2023-01-19T19:01:36.828Z,9.48
2023-01-19T19:04:03.556Z,9.82
2023-01-19T19:06:33.159Z,10.15
2023-01-19T19:08:59.773Z,10.98
2023-01-19T19:11:31.502Z,9.15
2023-01-19T19:14:02.461Z,9.57
2023-01-19T19:16:39.722Z,10.30
2023-01-19T19:19:24.228Z,9.50
2023-01-19T19:21:52.037Z,9.90
2023-01-19T19:24:20.139Z,9.63
2023-01-19T19:26:48.524Z,10.32
2023-01-19T19:29:17.632Z,10.55
2023-01-19T19:31:44.273Z,10.07
2023-01-19T19:34:15.125Z,9.65
2023-01-19T19:36:41.738Z,9.35
2023-01-19T19:39:14.324Z,10.60
2023-01-19T19:41:45.054Z,11.00
2023-01-19T19:44:11.757Z,10.75
2023-01-19T19:46:44.775Z,10.95
2023-01-19T19:49:11.441Z,10.77
2023-01-19T19:51:40.938Z,11.43
2023-01-19T19:54:07.556Z,11.13
2023-01-19T19:56:34.308Z,10.75
2023-01-19T19:59:03.547Z,13.50
2023-01-19T20:01:34.279Z,10.43
2023-01-19T20:04:12.238Z,13.35
2023-01-19T20:06:47.173Z,13.43
2023-01-19T20:09:15.506Z,12.13
2023-01-19T20:11:46.110Z,13.48
2023-01-19T20:14:16.671Z,12.32
2023-01-19T20:16:46.428Z,11.80
2023-01-19T20:19:15.498Z,12.70
2023-01-19T20:21:42.572Z,11.80
2023-01-19T20:24:16.178Z,12.85
2023-01-19T20:26:46.177Z,13.93
2023-01-19T20:29:19.273Z,12.45
2023-01-19T20:32:04.004Z,12.32
2023-01-19T20:34:37.237Z,11.15
2023-01-19T20:37:16.189Z,14.07
2023-01-19T20:39:52.684Z,13.70
2023-01-19T20:42:24.325Z,14.57
2023-01-19T20:44:52.781Z,15.75
2023-01-19T20:47:19.363Z,13.55
2023-01-19T20:50:09.640Z,13.68
2023-01-19T20:52:40.776Z,15.85
2023-01-19T20:55:18.595Z,16.00
2023-01-19T20:58:19.031Z,14.10
2023-01-19T21:00:52.721Z,16.50
2023-01-19T21:03:21.368Z,16.88
2023-01-19T21:05:59.526Z,16.55
2023-01-19T21:08:36.583Z,14.88
2023-01-19T21:11:03.900Z,17.00
2023-01-19T21:13:39.672Z,17.70
2023-01-19T21:16:12.201Z,19.10
2023-01-19T21:18:41.819Z,16.27
2023-01-19T21:21:28.402Z,17.90
2023-01-19T21:24:07.199Z,16.63
2023-01-19T21:26:45.791Z,12.70
2023-01-19T21:29:35.480Z,15.85
2023-01-19T21:32:15.171Z,19.27
2023-01-19T21:34:49.200Z,19.57
2023-01-19T21:37:18.489Z,20.50
2023-01-19T21:39:45.310Z,16.15
2023-01-19T21:42:15.488Z,20.63
2023-01-19T21:44:44.382Z,18.02
2023-01-19T21:47:12.229Z,18.08
2023-01-19T21:49:41.687Z,19.67
2023-01-19T21:52:09.696Z,18.23
2023-01-19T21:54:36.325Z,19.35
2023-01-19T21:57:02.949Z,18.02
2023-01-19T21:59:30.266Z,18.63
2023-01-19T22:02:05.672Z,19.33
2023-01-19T22:04:44.378Z,17.23
2023-01-19T22:07:19.916Z,16.80
2023-01-19T22:09:56.697Z,16.73
2023-01-19T22:12:32.955Z,19.83
2023-01-19T22:14:59.558Z,18.42
2023-01-19T22:17:28.875Z,16.85
2023-01-19T22:19:55.472Z,16.27
2023-01-19T22:22:30.797Z,19.40
2023-01-19T22:24:57.387Z,19.77
2023-01-19T22:27:32.834Z,19.40
2023-01-19T22:29:59.867Z,17.75
2023-01-19T22:32:26.478Z,18.05
2023-01-19T22:35:02.634Z,18.45
2023-01-19T22:37:30.687Z,16.65
2023-01-19T22:39:57.253Z,17.55
2023-01-19T22:42:34.392Z,19.08
2023-01-19T22:45:00.942Z,16.92
2023-01-19T22:47:29.736Z,17.60
2023-01-19T22:49:56.304Z,16.50
2023-01-19T22:52:22.927Z,17.77
2023-01-19T22:54:49.458Z,18.20
2023-01-19T22:57:15.988Z,17.95
2023-01-19T22:59:42.559Z,18.42
2023-01-19T23:02:09.210Z,17.60
2023-01-19T23:07:16.496Z,17.38
2023-01-19T23:09:48.273Z,16.67
2023-01-19T23:12:14.879Z,16.05
2023-01-19T23:14:50.332Z,17.77
2023-01-19T23:17:17.232Z,15.77
2023-01-19T23:19:52.669Z,16.88
2023-01-19T23:22:19.257Z,17.08
2023-01-19T23:24:45.792Z,17.45
2023-01-19T23:27:21.037Z,15.70
2023-01-19T23:29:50.815Z,17.25
2023-01-19T23:32:17.420Z,16.25
2023-01-19T23:34:44.063Z,17.25
2023-01-19T23:37:16.825Z,15.57
2023-01-19T23:39:43.386Z,16.30
2023-01-19T23:42:26.895Z,17.17
2023-01-19T23:44:58.473Z,15.63
2023-01-19T23:47:25.078Z,16.95
2023-01-19T23:49:55.406Z,17.17
2023-01-19T23:52:22.003Z,17.42
2023-01-19T23:55:02.013Z,16.27
2023-01-19T23:57:33.585Z,17.13
